sensor_id;sensor_type;location;lat;lon;timestamp;P1;durP1;ratioP1;P2;durP2;ratioP2
28437;SDS011;15667;52.376;9.708;2023-02-15T00:00:16;24.38;;;12.23;;
28437;SDS011;15667;52.376;9.708;2023-02-15T00:02:42;25.40;;;11.98;;
28437;SDS011;15667;52.376;9.708;2023-02-15T00:05:08;24.17;;;10.80;;
28437;SDS011;15667;52.376;9.708;2023-02-15T00:07:34;20.15;;;10.50;;
28437;SDS011;15667;52.376;9.708;2023-02-15T00:09:59;21.95;;;11.00;;
28437;SDS011;15667;52.376;9.708;2023-02-15T00:12:25;22.88;;;10.90;;
28437;SDS011;15667;52.376;9.708;2023-02-15T00:14:51;20.38;;;10.20;;
28437;SDS011;15667;52.376;9.708;2023-02-15T00:17:16;20.67;;;10.05;;
28437;SDS011;15667;52.376;9.708;2023-02-15T00:19:42;23.00;;;11.07;;
28437;SDS011;15667;52.376;9.708;2023-02-15T00:22:08;21.92;;;10.55;;
28437;SDS011;15667;52.376;9.708;2023-02-15T00:24:33;22.10;;;11.40;;
28437;SDS011;15667;52.376;9.708;2023-02-15T00:26:59;21.08;;;10.88;;
28437;SDS011;15667;52.376;9.708;2023-02-15T00:29:25;23.88;;;11.48;;
28437;SDS011;15667;52.376;9.708;2023-02-15T00:31:50;24.30;;;11.75;;
28437;SDS011;15667;52.376;9.708;2023-02-15T00:34:18;23.75;;;12.32;;
28437;SDS011;15667;52.376;9.708;2023-02-15T00:36:44;21.83;;;11.05;;
28437;SDS011;15667;52.376;9.708;2023-02-15T00:39:10;19.00;;;10.68;;
28437;SDS011;15667;52.376;9.708;2023-02-15T00:41:36;18.20;;;9.73;;
28437;SDS011;15667;52.376;9.708;2023-02-15T00:44:02;19.13;;;9.90;;
28437;SDS011;15667;52.376;9.708;2023-02-15T00:46:29;20.75;;;10.32;;
28437;SDS011;15667;52.376;9.708;2023-02-15T00:48:55;18.05;;;9.32;;
28437;SDS011;15667;52.376;9.708;2023-02-15T00:51:20;24.75;;;10.23;;
28437;SDS011;15667;52.376;9.708;2023-02-15T00:53:46;18.15;;;9.68;;
28437;SDS011;15667;52.376;9.708;2023-02-15T00:56:12;21.08;;;10.20;;
28437;SDS011;15667;52.376;9.708;2023-02-15T00:58:38;20.90;;;9.73;;
28437;SDS011;15667;52.376;9.708;2023-02-15T01:01:04;20.30;;;9.88;;
28437;SDS011;15667;52.376;9.708;2023-02-15T01:03:32;18.55;;;9.55;;
28437;SDS011;15667;52.376;9.708;2023-02-15T01:05:58;22.90;;;10.00;;
28437;SDS011;15667;52.376;9.708;2023-02-15T01:08:24;22.00;;;9.95;;
28437;SDS011;15667;52.376;9.708;2023-02-15T01:10:50;20.63;;;9.68;;
28437;SDS011;15667;52.376;9.708;2023-02-15T01:13:16;20.05;;;9.95;;
28437;SDS011;15667;52.376;9.708;2023-02-15T01:15:42;18.50;;;9.85;;
28437;SDS011;15667;52.376;9.708;2023-02-15T01:18:09;19.27;;;10.05;;
28437;SDS011;15667;52.376;9.708;2023-02-15T01:20:36;17.95;;;9.60;;
28437;SDS011;15667;52.376;9.708;2023-02-15T01:23:04;25.27;;;9.88;;
28437;SDS011;15667;52.376;9.708;2023-02-15T01:25:32;24.88;;;11.50;;
28437;SDS011;15667;52.376;9.708;2023-02-15T01:28:00;20.10;;;10.18;;
28437;SDS011;15667;52.376;9.708;2023-02-15T01:30:26;18.95;;;9.30;;
28437;SDS011;15667;52.376;9.708;2023-02-15T01:32:52;17.38;;;9.15;;
28437;SDS011;15667;52.376;9.708;2023-02-15T01:35:17;18.02;;;9.43;;
28437;SDS011;15667;52.376;9.708;2023-02-15T01:37:43;17.85;;;9.18;;
28437;SDS011;15667;52.376;9.708;2023-02-15T01:40:12;21.05;;;9.85;;
28437;SDS011;15667;52.376;9.708;2023-02-15T01:42:39;19.48;;;9.52;;
28437;SDS011;15667;52.376;9.708;2023-02-15T01:47:51;21.95;;;10.18;;
28437;SDS011;15667;52.376;9.708;2023-02-15T01:55:47;20.85;;;9.93;;
28437;SDS011;15667;52.376;9.708;2023-02-15T01:58:19;20.48;;;9.88;;
28437;SDS011;15667;52.376;9.708;2023-02-15T02:00:46;24.30;;;10.85;;
28437;SDS011;15667;52.376;9.708;2023-02-15T02:03:12;21.33;;;10.25;;
28437;SDS011;15667;52.376;9.708;2023-02-15T02:05:38;22.13;;;10.45;;
28437;SDS011;15667;52.376;9.708;2023-02-15T02:08:05;22.00;;;10.32;;
28437;SDS011;15667;52.376;9.708;2023-02-15T02:10:32;21.27;;;10.50;;
28437;SDS011;15667;52.376;9.708;2023-02-15T02:12:58;21.40;;;9.88;;
28437;SDS011;15667;52.376;9.708;2023-02-15T02:15:28;20.95;;;10.43;;
28437;SDS011;15667;52.376;9.708;2023-02-15T02:30:06;21.08;;;9.73;;
28437;SDS011;15667;52.376;9.708;2023-02-15T02:33:18;23.63;;;10.75;;
28437;SDS011;15667;52.376;9.708;2023-02-15T02:43:48;21.88;;;11.00;;
28437;SDS011;15667;52.376;9.708;2023-02-15T02:46:27;23.38;;;10.93;;
28437;SDS011;15667;52.376;9.708;2023-02-15T02:48:59;19.20;;;10.02;;
28437;SDS011;15667;52.376;9.708;2023-02-15T02:51:26;22.92;;;11.10;;
28437;SDS011;15667;52.376;9.708;2023-02-15T02:53:53;26.95;;;11.50;;
28437;SDS011;15667;52.376;9.708;2023-02-15T02:56:55;25.10;;;10.95;;
28437;SDS011;15667;52.376;9.708;2023-02-15T02:59:21;23.02;;;11.40;;
28437;SDS011;15667;52.376;9.708;2023-02-15T03:01:52;22.40;;;11.10;;
28437;SDS011;15667;52.376;9.708;2023-02-15T03:04:24;23.58;;;11.30;;
28437;SDS011;15667;52.376;9.708;2023-02-15T03:07:09;24.70;;;10.85;;
28437;SDS011;15667;52.376;9.708;2023-02-15T03:09:41;24.02;;;11.70;;
28437;SDS011;15667;52.376;9.708;2023-02-15T03:12:11;24.02;;;11.98;;
28437;SDS011;15667;52.376;9.708;2023-02-15T03:14:43;19.90;;;8.93;;
28437;SDS011;15667;52.376;9.708;2023-02-15T03:17:13;24.58;;;12.05;;
28437;SDS011;15667;52.376;9.708;2023-02-15T03:19:41;30.23;;;13.02;;
28437;SDS011;15667;52.376;9.708;2023-02-15T03:22:14;24.58;;;12.07;;
28437;SDS011;15667;52.376;9.708;2023-02-15T03:24:59;27.48;;;11.60;;
28437;SDS011;15667;52.376;9.708;2023-02-15T03:27:32;22.98;;;11.32;;
28437;SDS011;15667;52.376;9.708;2023-02-15T03:30:03;26.08;;;12.60;;
28437;SDS011;15667;52.376;9.708;2023-02-15T03:32:31;27.48;;;11.70;;
28437;SDS011;15667;52.376;9.708;2023-02-15T03:34:58;27.45;;;11.75;;
28437;SDS011;15667;52.376;9.708;2023-02-15T03:46:15;24.88;;;11.57;;
28437;SDS011;15667;52.376;9.708;2023-02-15T03:48:54;27.38;;;12.23;;
28437;SDS011;15667;52.376;9.708;2023-02-15T03:51:33;26.00;;;12.02;;
28437;SDS011;15667;52.376;9.708;2023-02-15T03:54:10;28.63;;;12.55;;
28437;SDS011;15667;52.376;9.708;2023-02-15T03:56:38;28.60;;;12.23;;
28437;SDS011;15667;52.376;9.708;2023-02-15T03:59:05;25.17;;;12.20;;
28437;SDS011;15667;52.376;9.708;2023-02-15T04:02:04;25.75;;;12.27;;
28437;SDS011;15667;52.376;9.708;2023-02-15T04:04:45;26.65;;;12.45;;
28437;SDS011;15667;52.376;9.708;2023-02-15T04:07:11;28.15;;;13.32;;
28437;SDS011;15667;52.376;9.708;2023-02-15T04:09:38;32.33;;;13.07;;
28437;SDS011;15667;52.376;9.708;2023-02-15T04:14:47;27.23;;;12.55;;
28437;SDS011;15667;52.376;9.708;2023-02-15T04:19:57;26.50;;;11.93;;
28437;SDS011;15667;52.376;9.708;2023-02-15T04:22:42;25.63;;;12.00;;
28437;SDS011;15667;52.376;9.708;2023-02-15T04:25:27;27.08;;;13.10;;
28437;SDS011;15667;52.376;9.708;2023-02-15T04:27:53;27.77;;;12.63;;
28437;SDS011;15667;52.376;9.708;2023-02-15T04:30:20;33.03;;;13.50;;
28437;SDS011;15667;52.376;9.708;2023-02-15T04:32:47;26.55;;;12.25;;
28437;SDS011;15667;52.376;9.708;2023-02-15T04:35:13;28.38;;;12.52;;
28437;SDS011;15667;52.376;9.708;2023-02-15T04:37:40;29.92;;;13.27;;
28437;SDS011;15667;52.376;9.708;2023-02-15T04:40:07;28.75;;;12.38;;
28437;SDS011;15667;52.376;9.708;2023-02-15T04:42:33;29.90;;;13.10;;
28437;SDS011;15667;52.376;9.708;2023-02-15T04:44:59;27.58;;;12.57;;
28437;SDS011;15667;52.376;9.708;2023-02-15T04:47:25;31.35;;;13.80;;
28437;SDS011;15667;52.376;9.708;2023-02-15T04:49:50;29.27;;;12.32;;
28437;SDS011;15667;52.376;9.708;2023-02-15T04:52:16;31.17;;;13.63;;
28437;SDS011;15667;52.376;9.708;2023-02-15T04:54:42;23.67;;;12.43;;
28437;SDS011;15667;52.376;9.708;2023-02-15T04:57:09;29.33;;;13.43;;
28437;SDS011;15667;52.376;9.708;2023-02-15T04:59:35;38.90;;;12.70;;
28437;SDS011;15667;52.376;9.708;2023-02-15T05:02:00;35.75;;;13.38;;
28437;SDS011;15667;52.376;9.708;2023-02-15T05:04:26;29.20;;;12.82;;
28437;SDS011;15667;52.376;9.708;2023-02-15T05:06:52;26.48;;;13.27;;
28437;SDS011;15667;52.376;9.708;2023-02-15T05:09:17;31.08;;;13.75;;
28437;SDS011;15667;52.376;9.708;2023-02-15T05:11:43;32.75;;;12.75;;
28437;SDS011;15667;52.376;9.708;2023-02-15T05:14:09;28.73;;;13.43;;
28437;SDS011;15667;52.376;9.708;2023-02-15T05:16:34;30.05;;;13.63;;
28437;SDS011;15667;52.376;9.708;2023-02-15T05:19:00;29.77;;;13.80;;
28437;SDS011;15667;52.376;9.708;2023-02-15T05:21:26;38.63;;;14.20;;
28437;SDS011;15667;52.376;9.708;2023-02-15T05:23:51;34.22;;;15.27;;
28437;SDS011;15667;52.376;9.708;2023-02-15T05:26:18;30.00;;;13.57;;
28437;SDS011;15667;52.376;9.708;2023-02-15T05:29:04;31.77;;;14.23;;
28437;SDS011;15667;52.376;9.708;2023-02-15T05:31:30;29.30;;;13.63;;
28437;SDS011;15667;52.376;9.708;2023-02-15T05:33:57;31.45;;;13.40;;
28437;SDS011;15667;52.376;9.708;2023-02-15T05:36:23;30.13;;;13.65;;
28437;SDS011;15667;52.376;9.708;2023-02-15T05:38:49;30.75;;;13.85;;
28437;SDS011;15667;52.376;9.708;2023-02-15T05:41:15;29.55;;;13.85;;
28437;SDS011;15667;52.376;9.708;2023-02-15T05:43:41;32.42;;;14.57;;
28437;SDS011;15667;52.376;9.708;2023-02-15T05:46:07;31.20;;;14.20;;
28437;SDS011;15667;52.376;9.708;2023-02-15T05:48:33;34.30;;;14.35;;
28437;SDS011;15667;52.376;9.708;2023-02-15T05:51:03;38.70;;;15.20;;
28437;SDS011;15667;52.376;9.708;2023-02-15T05:53:31;37.10;;;15.13;;
28437;SDS011;15667;52.376;9.708;2023-02-15T05:55:57;37.33;;;15.07;;
28437;SDS011;15667;52.376;9.708;2023-02-15T05:58:26;33.10;;;15.02;;
28437;SDS011;15667;52.376;9.708;2023-02-15T06:00:53;32.95;;;14.75;;
28437;SDS011;15667;52.376;9.708;2023-02-15T06:03:18;38.60;;;15.68;;
28437;SDS011;15667;52.376;9.708;2023-02-15T06:05:44;34.97;;;15.30;;
28437;SDS011;15667;52.376;9.708;2023-02-15T06:08:10;33.50;;;14.52;;
28437;SDS011;15667;52.376;9.708;2023-02-15T06:10:35;37.80;;;15.52;;
28437;SDS011;15667;52.376;9.708;2023-02-15T06:13:01;142.05;;;51.67;;
28437;SDS011;15667;52.376;9.708;2023-02-15T06:15:26;109.20;;;44.35;;
28437;SDS011;15667;52.376;9.708;2023-02-15T06:17:52;51.17;;;21.48;;
28437;SDS011;15667;52.376;9.708;2023-02-15T06:20:18;41.60;;;16.63;;
28437;SDS011;15667;52.376;9.708;2023-02-15T06:22:43;35.58;;;15.50;;
28437;SDS011;15667;52.376;9.708;2023-02-15T06:25:09;46.92;;;19.25;;
28437;SDS011;15667;52.376;9.708;2023-02-15T06:27:36;37.67;;;16.67;;
28437;SDS011;15667;52.376;9.708;2023-02-15T06:30:02;34.42;;;15.68;;
28437;SDS011;15667;52.376;9.708;2023-02-15T06:32:30;35.80;;;15.15;;
28437;SDS011;15667;52.376;9.708;2023-02-15T06:34:56;38.85;;;16.30;;
28437;SDS011;15667;52.376;9.708;2023-02-15T06:37:22;34.50;;;15.55;;
28437;SDS011;15667;52.376;9.708;2023-02-15T06:39:47;36.97;;;16.70;;
28437;SDS011;15667;52.376;9.708;2023-02-15T06:42:13;38.38;;;15.23;;
28437;SDS011;15667;52.376;9.708;2023-02-15T06:44:39;36.25;;;15.40;;
28437;SDS011;15667;52.376;9.708;2023-02-15T06:47:04;35.90;;;15.43;;
28437;SDS011;15667;52.376;9.708;2023-02-15T06:49:30;35.90;;;16.13;;
28437;SDS011;15667;52.376;9.708;2023-02-15T06:51:55;34.40;;;14.77;;
28437;SDS011;15667;52.376;9.708;2023-02-15T06:54:21;33.67;;;15.05;;
28437;SDS011;15667;52.376;9.708;2023-02-15T06:56:46;34.10;;;14.68;;
28437;SDS011;15667;52.376;9.708;2023-02-15T06:59:12;36.67;;;15.27;;
28437;SDS011;15667;52.376;9.708;2023-02-15T07:01:38;35.72;;;15.07;;
28437;SDS011;15667;52.376;9.708;2023-02-15T07:04:03;37.78;;;16.00;;
28437;SDS011;15667;52.376;9.708;2023-02-15T07:06:33;36.25;;;16.10;;
28437;SDS011;15667;52.376;9.708;2023-02-15T07:08:59;34.92;;;16.45;;
28437;SDS011;15667;52.376;9.708;2023-02-15T07:11:25;39.42;;;16.48;;
28437;SDS011;15667;52.376;9.708;2023-02-15T07:14:09;32.05;;;15.38;;
28437;SDS011;15667;52.376;9.708;2023-02-15T07:16:37;38.40;;;16.02;;
28437;SDS011;15667;52.376;9.708;2023-02-15T07:20:20;36.95;;;16.08;;
28437;SDS011;15667;52.376;9.708;2023-02-15T07:23:13;25.30;;;10.40;;
28437;SDS011;15667;52.376;9.708;2023-02-15T07:26:27;38.60;;;14.95;;
28437;SDS011;15667;52.376;9.708;2023-02-15T07:31:50;37.53;;;15.68;;
28437;SDS011;15667;52.376;9.708;2023-02-15T07:34:28;35.25;;;15.55;;
28437;SDS011;15667;52.376;9.708;2023-02-15T07:47:37;28.73;;;12.20;;
28437;SDS011;15667;52.376;9.708;2023-02-15T07:54:51;35.90;;;15.68;;
28437;SDS011;15667;52.376;9.708;2023-02-15T07:57:48;34.45;;;14.85;;
28437;SDS011;15667;52.376;9.708;2023-02-15T08:01:32;36.13;;;15.38;;
28437;SDS011;15667;52.376;9.708;2023-02-15T08:05:00;36.05;;;15.38;;
28437;SDS011;15667;52.376;9.708;2023-02-15T08:11:55;40.83;;;15.48;;
28437;SDS011;15667;52.376;9.708;2023-02-15T08:14:20;34.22;;;15.25;;
28437;SDS011;15667;52.376;9.708;2023-02-15T08:16:50;35.70;;;15.48;;
28437;SDS011;15667;52.376;9.708;2023-02-15T08:21:44;29.65;;;14.23;;
28437;SDS011;15667;52.376;9.708;2023-02-15T08:24:12;32.50;;;15.02;;
28437;SDS011;15667;52.376;9.708;2023-02-15T08:26:39;32.63;;;14.07;;
28437;SDS011;15667;52.376;9.708;2023-02-15T08:29:05;26.58;;;12.82;;
28437;SDS011;15667;52.376;9.708;2023-02-15T08:31:32;26.45;;;13.07;;
28437;SDS011;15667;52.376;9.708;2023-02-15T08:33:58;27.90;;;12.85;;
28437;SDS011;15667;52.376;9.708;2023-02-15T08:36:25;30.35;;;13.35;;
28437;SDS011;15667;52.376;9.708;2023-02-15T08:38:53;25.15;;;12.65;;
28437;SDS011;15667;52.376;9.708;2023-02-15T08:41:20;26.85;;;12.73;;
28437;SDS011;15667;52.376;9.708;2023-02-15T08:43:50;28.48;;;13.15;;
28437;SDS011;15667;52.376;9.708;2023-02-15T08:46:36;28.52;;;13.38;;
28437;SDS011;15667;52.376;9.708;2023-02-15T08:49:14;29.13;;;13.70;;
28437;SDS011;15667;52.376;9.708;2023-02-15T08:51:42;31.27;;;13.80;;
28437;SDS011;15667;52.376;9.708;2023-02-15T08:54:08;27.77;;;13.38;;
28437;SDS011;15667;52.376;9.708;2023-02-15T08:56:38;26.67;;;12.77;;
28437;SDS011;15667;52.376;9.708;2023-02-15T08:59:06;27.15;;;13.25;;
28437;SDS011;15667;52.376;9.708;2023-02-15T09:01:36;24.08;;;11.57;;
28437;SDS011;15667;52.376;9.708;2023-02-15T09:04:03;23.77;;;11.27;;
28437;SDS011;15667;52.376;9.708;2023-02-15T09:06:31;24.05;;;11.60;;
28437;SDS011;15667;52.376;9.708;2023-02-15T09:08:57;21.42;;;11.02;;
28437;SDS011;15667;52.376;9.708;2023-02-15T09:11:24;24.45;;;11.75;;
28437;SDS011;15667;52.376;9.708;2023-02-15T09:16:31;20.50;;;10.38;;
28437;SDS011;15667;52.376;9.708;2023-02-15T09:18:58;20.35;;;10.52;;
28437;SDS011;15667;52.376;9.708;2023-02-15T09:21:26;22.65;;;10.93;;
28437;SDS011;15667;52.376;9.708;2023-02-15T09:23:55;24.33;;;11.77;;
28437;SDS011;15667;52.376;9.708;2023-02-15T09:26:25;23.17;;;12.32;;
28437;SDS011;15667;52.376;9.708;2023-02-15T09:28:54;22.38;;;10.50;;
28437;SDS011;15667;52.376;9.708;2023-02-15T09:31:21;23.63;;;11.73;;
28437;SDS011;15667;52.376;9.708;2023-02-15T09:33:49;20.02;;;10.18;;
28437;SDS011;15667;52.376;9.708;2023-02-15T09:36:16;22.75;;;10.40;;
28437;SDS011;15667;52.376;9.708;2023-02-15T09:38:44;27.95;;;12.80;;
28437;SDS011;15667;52.376;9.708;2023-02-15T09:56:38;20.92;;;10.48;;
28437;SDS011;15667;52.376;9.708;2023-02-15T10:29:34;25.60;;;12.48;;
28437;SDS011;15667;52.376;9.708;2023-02-15T10:32:26;25.95;;;12.13;;
28437;SDS011;15667;52.376;9.708;2023-02-15T10:38:25;23.90;;;11.88;;
28437;SDS011;15667;52.376;9.708;2023-02-15T10:51:03;24.38;;;11.90;;
28437;SDS011;15667;52.376;9.708;2023-02-15T10:57:27;24.33;;;11.52;;
28437;SDS011;15667;52.376;9.708;2023-02-15T11:00:23;25.80;;;12.15;;
28437;SDS011;15667;52.376;9.708;2023-02-15T11:06:04;25.25;;;12.20;;
28437;SDS011;15667;52.376;9.708;2023-02-15T11:08:59;23.10;;;11.10;;
28437;SDS011;15667;52.376;9.708;2023-02-15T11:11:44;27.38;;;11.35;;
28437;SDS011;15667;52.376;9.708;2023-02-15T11:17:56;23.65;;;10.85;;
28437;SDS011;15667;52.376;9.708;2023-02-15T11:25:21;23.40;;;10.85;;
28437;SDS011;15667;52.376;9.708;2023-02-15T11:51:31;22.92;;;11.25;;
28437;SDS011;15667;52.376;9.708;2023-02-15T11:57:37;21.23;;;10.90;;
28437;SDS011;15667;52.376;9.708;2023-02-15T12:01:08;25.05;;;11.45;;
28437;SDS011;15667;52.376;9.708;2023-02-15T12:07:26;24.75;;;11.98;;
28437;SDS011;15667;52.376;9.708;2023-02-15T12:17:18;26.25;;;12.43;;
28437;SDS011;15667;52.376;9.708;2023-02-15T12:49:04;18.52;;;10.32;;
28437;SDS011;15667;52.376;9.708;2023-02-15T12:54:51;23.83;;;11.38;;
28437;SDS011;15667;52.376;9.708;2023-02-15T12:57:36;21.58;;;11.23;;
28437;SDS011;15667;52.376;9.708;2023-02-15T13:05:26;25.58;;;11.55;;
28437;SDS011;15667;52.376;9.708;2023-02-15T13:10:56;22.58;;;11.00;;
28437;SDS011;15667;52.376;9.708;2023-02-15T13:13:58;22.90;;;11.18;;
28437;SDS011;15667;52.376;9.708;2023-02-15T13:18:55;22.70;;;11.35;;
28437;SDS011;15667;52.376;9.708;2023-02-15T13:21:23;22.05;;;11.45;;
28437;SDS011;15667;52.376;9.708;2023-02-15T13:23:57;24.65;;;11.70;;
28437;SDS011;15667;52.376;9.708;2023-02-15T13:26:31;29.10;;;11.95;;
28437;SDS011;15667;52.376;9.708;2023-02-15T13:29:00;22.95;;;11.25;;
28437;SDS011;15667;52.376;9.708;2023-02-15T13:31:36;20.15;;;10.70;;
28437;SDS011;15667;52.376;9.708;2023-02-15T13:34:09;24.23;;;12.30;;
28437;SDS011;15667;52.376;9.708;2023-02-15T13:39:17;25.02;;;12.05;;
28437;SDS011;15667;52.376;9.708;2023-02-15T13:47:27;22.95;;;11.93;;
28437;SDS011;15667;52.376;9.708;2023-02-15T13:55:33;20.33;;;11.07;;
28437;SDS011;15667;52.376;9.708;2023-02-15T14:04:06;19.50;;;10.32;;
28437;SDS011;15667;52.376;9.708;2023-02-15T14:09:38;20.88;;;10.88;;
28437;SDS011;15667;52.376;9.708;2023-02-15T14:20:19;20.48;;;10.43;;
28437;SDS011;15667;52.376;9.708;2023-02-15T14:26:20;23.48;;;11.10;;
28437;SDS011;15667;52.376;9.708;2023-02-15T14:31:38;20.95;;;10.38;;
28437;SDS011;15667;52.376;9.708;2023-02-15T14:34:18;20.55;;;11.43;;
28437;SDS011;15667;52.376;9.708;2023-02-15T14:36:48;22.95;;;11.18;;
28437;SDS011;15667;52.376;9.708;2023-02-15T14:39:25;24.25;;;11.32;;
28437;SDS011;15667;52.376;9.708;2023-02-15T14:42:34;27.02;;;11.57;;
28437;SDS011;15667;52.376;9.708;2023-02-15T14:47:51;24.25;;;10.82;;
28437;SDS011;15667;52.376;9.708;2023-02-15T14:50:35;20.88;;;10.50;;
28437;SDS011;15667;52.376;9.708;2023-02-15T14:58:37;23.33;;;11.60;;
28437;SDS011;15667;52.376;9.708;2023-02-15T15:01:29;22.73;;;11.30;;
28437;SDS011;15667;52.376;9.708;2023-02-15T15:04:04;23.70;;;12.15;;
28437;SDS011;15667;52.376;9.708;2023-02-15T15:06:35;23.05;;;11.38;;
28437;SDS011;15667;52.376;9.708;2023-02-15T15:09:12;23.50;;;11.98;;
28437;SDS011;15667;52.376;9.708;2023-02-15T15:11:47;26.50;;;11.73;;
28437;SDS011;15667;52.376;9.708;2023-02-15T15:16:59;29.10;;;12.23;;
28437;SDS011;15667;52.376;9.708;2023-02-15T15:25:04;25.90;;;11.63;;
28437;SDS011;15667;52.376;9.708;2023-02-15T15:35:24;26.25;;;11.80;;
28437;SDS011;15667;52.376;9.708;2023-02-15T15:49:12;27.10;;;12.00;;
28437;SDS011;15667;52.376;9.708;2023-02-15T15:51:41;30.85;;;14.23;;
28437;SDS011;15667;52.376;9.708;2023-02-15T15:54:12;34.25;;;14.65;;
28437;SDS011;15667;52.376;9.708;2023-02-15T15:56:46;31.35;;;13.70;;
28437;SDS011;15667;52.376;9.708;2023-02-15T15:59:26;35.17;;;14.05;;
28437;SDS011;15667;52.376;9.708;2023-02-15T16:01:55;31.80;;;13.73;;
28437;SDS011;15667;52.376;9.708;2023-02-15T16:04:31;29.92;;;13.20;;
28437;SDS011;15667;52.376;9.708;2023-02-15T16:06:58;34.33;;;13.00;;
28437;SDS011;15667;52.376;9.708;2023-02-15T16:12:20;36.70;;;13.65;;
28437;SDS011;15667;52.376;9.708;2023-02-15T16:14:47;28.98;;;13.10;;
28437;SDS011;15667;52.376;9.708;2023-02-15T16:22:39;29.05;;;13.25;;
28437;SDS011;15667;52.376;9.708;2023-02-15T16:27:53;28.27;;;12.65;;
28437;SDS011;15667;52.376;9.708;2023-02-15T16:32:52;30.23;;;14.20;;
28437;SDS011;15667;52.376;9.708;2023-02-15T16:35:35;31.80;;;13.68;;
28437;SDS011;15667;52.376;9.708;2023-02-15T16:38:03;33.03;;;13.27;;
28437;SDS011;15667;52.376;9.708;2023-02-15T16:43:26;29.58;;;13.10;;
28437;SDS011;15667;52.376;9.708;2023-02-15T16:45:58;24.33;;;12.70;;
28437;SDS011;15667;52.376;9.708;2023-02-15T16:48:29;30.55;;;13.27;;
28437;SDS011;15667;52.376;9.708;2023-02-15T16:51:00;27.15;;;12.45;;
28437;SDS011;15667;52.376;9.708;2023-02-15T16:53:27;28.63;;;13.00;;
28437;SDS011;15667;52.376;9.708;2023-02-15T16:55:54;30.55;;;13.45;;
28437;SDS011;15667;52.376;9.708;2023-02-15T16:58:28;37.40;;;14.35;;
28437;SDS011;15667;52.376;9.708;2023-02-15T17:01:11;30.02;;;13.48;;
28437;SDS011;15667;52.376;9.708;2023-02-15T17:03:40;35.15;;;14.40;;
28437;SDS011;15667;52.376;9.708;2023-02-15T17:06:18;30.83;;;14.27;;
28437;SDS011;15667;52.376;9.708;2023-02-15T17:08:48;35.10;;;15.90;;
28437;SDS011;15667;52.376;9.708;2023-02-15T17:11:18;27.83;;;13.85;;
28437;SDS011;15667;52.376;9.708;2023-02-15T17:16:29;28.67;;;13.65;;
28437;SDS011;15667;52.376;9.708;2023-02-15T17:18:58;29.23;;;13.30;;
28437;SDS011;15667;52.376;9.708;2023-02-15T17:21:30;27.15;;;12.82;;
28437;SDS011;15667;52.376;9.708;2023-02-15T17:24:05;26.63;;;12.30;;
28437;SDS011;15667;52.376;9.708;2023-02-15T17:26:32;32.05;;;13.05;;
28437;SDS011;15667;52.376;9.708;2023-02-15T17:29:17;33.25;;;13.75;;
28437;SDS011;15667;52.376;9.708;2023-02-15T17:31:53;25.50;;;12.67;;
28437;SDS011;15667;52.376;9.708;2023-02-15T17:40:14;31.13;;;13.73;;
28437;SDS011;15667;52.376;9.708;2023-02-15T17:42:44;34.03;;;12.68;;
28437;SDS011;15667;52.376;9.708;2023-02-15T17:45:10;27.00;;;12.88;;
28437;SDS011;15667;52.376;9.708;2023-02-15T17:47:35;28.17;;;13.27;;
28437;SDS011;15667;52.376;9.708;2023-02-15T17:50:05;30.02;;;13.90;;
28437;SDS011;15667;52.376;9.708;2023-02-15T17:52:32;31.38;;;14.00;;
28437;SDS011;15667;52.376;9.708;2023-02-15T17:55:01;35.20;;;13.38;;
28437;SDS011;15667;52.376;9.708;2023-02-15T17:57:57;30.17;;;13.00;;
28437;SDS011;15667;52.376;9.708;2023-02-15T18:00:23;30.92;;;14.15;;
28437;SDS011;15667;52.376;9.708;2023-02-15T18:03:13;33.28;;;14.18;;
28437;SDS011;15667;52.376;9.708;2023-02-15T18:05:58;33.65;;;14.20;;
28437;SDS011;15667;52.376;9.708;2023-02-15T18:08:45;31.15;;;15.20;;
28437;SDS011;15667;52.376;9.708;2023-02-15T18:11:29;36.67;;;14.82;;
28437;SDS011;15667;52.376;9.708;2023-02-15T18:14:01;32.95;;;14.10;;
28437;SDS011;15667;52.376;9.708;2023-02-15T18:16:35;32.42;;;13.25;;
28437;SDS011;15667;52.376;9.708;2023-02-15T18:19:03;28.25;;;12.98;;
28437;SDS011;15667;52.376;9.708;2023-02-15T18:21:32;34.40;;;14.27;;
28437;SDS011;15667;52.376;9.708;2023-02-15T18:23:58;29.25;;;14.02;;
28437;SDS011;15667;52.376;9.708;2023-02-15T18:26:24;30.90;;;13.98;;
28437;SDS011;15667;52.376;9.708;2023-02-15T18:28:53;29.98;;;13.85;;
28437;SDS011;15667;52.376;9.708;2023-02-15T18:31:19;31.38;;;14.20;;
28437;SDS011;15667;52.376;9.708;2023-02-15T18:33:52;36.63;;;15.25;;
28437;SDS011;15667;52.376;9.708;2023-02-15T18:36:21;28.35;;;10.07;;
28437;SDS011;15667;52.376;9.708;2023-02-15T18:38:52;32.22;;;14.32;;
28437;SDS011;15667;52.376;9.708;2023-02-15T18:41:19;28.58;;;13.40;;
28437;SDS011;15667;52.376;9.708;2023-02-15T18:43:48;33.08;;;14.90;;
28437;SDS011;15667;52.376;9.708;2023-02-15T18:46:18;31.80;;;13.82;;
28437;SDS011;15667;52.376;9.708;2023-02-15T18:48:47;32.60;;;13.85;;
28437;SDS011;15667;52.376;9.708;2023-02-15T18:51:20;32.28;;;13.02;;
28437;SDS011;15667;52.376;9.708;2023-02-15T18:53:47;29.85;;;13.57;;
28437;SDS011;15667;52.376;9.708;2023-02-15T18:56:16;27.83;;;13.02;;
28437;SDS011;15667;52.376;9.708;2023-02-15T18:58:43;26.55;;;12.23;;
28437;SDS011;15667;52.376;9.708;2023-02-15T19:01:18;27.02;;;12.70;;
28437;SDS011;15667;52.376;9.708;2023-02-15T19:03:48;32.20;;;13.00;;
28437;SDS011;15667;52.376;9.708;2023-02-15T19:06:16;29.58;;;12.68;;
28437;SDS011;15667;52.376;9.708;2023-02-15T19:08:52;28.25;;;12.75;;
28437;SDS011;15667;52.376;9.708;2023-02-15T19:11:37;27.30;;;12.15;;
28437;SDS011;15667;52.376;9.708;2023-02-15T19:14:08;26.52;;;12.50;;
28437;SDS011;15667;52.376;9.708;2023-02-15T19:17:08;28.50;;;12.35;;
28437;SDS011;15667;52.376;9.708;2023-02-15T19:19:42;30.77;;;13.30;;
28437;SDS011;15667;52.376;9.708;2023-02-15T19:27:48;28.70;;;11.93;;
28437;SDS011;15667;52.376;9.708;2023-02-15T19:33:34;25.73;;;12.52;;
28437;SDS011;15667;52.376;9.708;2023-02-15T19:36:09;26.73;;;12.60;;
28437;SDS011;15667;52.376;9.708;2023-02-15T19:38:41;29.10;;;13.57;;
28437;SDS011;15667;52.376;9.708;2023-02-15T19:41:18;29.55;;;13.55;;
28437;SDS011;15667;52.376;9.708;2023-02-15T19:43:53;28.52;;;12.85;;
28437;SDS011;15667;52.376;9.708;2023-02-15T19:46:23;27.88;;;13.63;;
28437;SDS011;15667;52.376;9.708;2023-02-15T19:48:50;29.85;;;14.10;;
28437;SDS011;15667;52.376;9.708;2023-02-15T19:51:17;27.77;;;12.52;;
28437;SDS011;15667;52.376;9.708;2023-02-15T19:53:49;26.77;;;13.10;;
28437;SDS011;15667;52.376;9.708;2023-02-15T19:56:19;30.50;;;12.80;;
28437;SDS011;15667;52.376;9.708;2023-02-15T19:58:48;29.10;;;13.68;;
28437;SDS011;15667;52.376;9.708;2023-02-15T20:01:18;30.13;;;13.02;;
28437;SDS011;15667;52.376;9.708;2023-02-15T20:03:46;31.48;;;13.43;;
28437;SDS011;15667;52.376;9.708;2023-02-15T20:06:15;28.55;;;13.10;;
28437;SDS011;15667;52.376;9.708;2023-02-15T20:08:51;30.52;;;13.50;;
28437;SDS011;15667;52.376;9.708;2023-02-15T20:11:20;27.23;;;12.82;;
28437;SDS011;15667;52.376;9.708;2023-02-15T20:14:02;28.95;;;12.98;;
28437;SDS011;15667;52.376;9.708;2023-02-15T20:19:02;31.02;;;12.55;;
28437;SDS011;15667;52.376;9.708;2023-02-15T20:21:40;29.27;;;13.82;;
28437;SDS011;15667;52.376;9.708;2023-02-15T20:24:25;26.45;;;12.57;;